sensor_id;sensor_type;location;lat;lon;timestamp;pressure;altitude;pressure_sealevel;temperature;humidity
72024;BME280;59889;50.700;5.440;2023-03-04T00:02:23;101030.45;;;19.49;31.93
72024;BME280;59889;50.700;5.440;2023-03-04T00:04:49;101029.36;;;19.62;31.82
72024;BME280;59889;50.700;5.440;2023-03-04T00:07:14;101029.96;;;19.50;31.92
72024;BME280;59889;50.700;5.440;2023-03-04T00:09:39;101032.41;;;19.51;31.97
72024;BME280;59889;50.700;5.440;2023-03-04T00:12:04;101031.50;;;19.63;31.84
72024;BME280;59889;50.700;5.440;2023-03-04T00:14:29;101034.57;;;19.52;31.92
72024;BME280;59889;50.700;5.440;2023-03-04T00:16:54;101037.11;;;19.67;31.79
72024;BME280;59889;50.700;5.440;2023-03-04T00:19:19;101037.03;;;19.80;31.90
72024;BME280;59889;50.700;5.440;2023-03-04T00:21:44;101032.34;;;19.90;31.81
72024;BME280;59889;50.700;5.440;2023-03-04T00:24:10;101030.55;;;19.84;31.84
72024;BME280;59889;50.700;5.440;2023-03-04T00:26:35;101027.96;;;19.87;31.83
72024;BME280;59889;50.700;5.440;2023-03-04T00:29:00;101030.80;;;19.65;31.80
72024;BME280;59889;50.700;5.440;2023-03-04T00:31:25;101028.17;;;19.59;31.83
72024;BME280;59889;50.700;5.440;2023-03-04T00:33:50;101030.15;;;19.61;31.84
72024;BME280;59889;50.700;5.440;2023-03-04T00:36:15;101028.60;;;19.48;31.94
72024;BME280;59889;50.700;5.440;2023-03-04T00:38:40;101024.71;;;19.61;31.82
72024;BME280;59889;50.700;5.440;2023-03-04T00:41:05;101027.15;;;19.63;31.82
72024;BME280;59889;50.700;5.440;2023-03-04T00:43:31;101025.69;;;19.80;31.86
72024;BME280;59889;50.700;5.440;2023-03-04T00:45:56;101024.17;;;19.75;31.93
72024;BME280;59889;50.700;5.440;2023-03-04T00:48:21;101024.42;;;19.74;31.96
72024;BME280;59889;50.700;5.440;2023-03-04T00:50:46;101023.64;;;19.50;31.98
72024;BME280;59889;50.700;5.440;2023-03-04T00:53:11;101020.70;;;19.78;31.94
72024;BME280;59889;50.700;5.440;2023-03-04T00:55:36;101020.46;;;19.71;32.00
72024;BME280;59889;50.700;5.440;2023-03-04T00:58:01;101019.16;;;19.74;31.96
72024;BME280;59889;50.700;5.440;2023-03-04T01:00:26;101013.71;;;19.55;31.91
72024;BME280;59889;50.700;5.440;2023-03-04T01:02:52;101012.55;;;19.60;31.88
72024;BME280;59889;50.700;5.440;2023-03-04T01:05:17;101010.94;;;19.43;32.00
72024;BME280;59889;50.700;5.440;2023-03-04T01:07:42;101015.27;;;19.50;31.97
72024;BME280;59889;50.700;5.440;2023-03-04T01:10:10;101015.20;;;19.58;31.87
72024;BME280;59889;50.700;5.440;2023-03-04T01:12:32;101019.43;;;19.53;31.94
72024;BME280;59889;50.700;5.440;2023-03-04T01:14:57;101019.54;;;19.48;32.00
72024;BME280;59889;50.700;5.440;2023-03-04T01:17:22;101022.34;;;19.54;31.92
72024;BME280;59889;50.700;5.440;2023-03-04T01:19:48;101020.59;;;19.84;31.89
72024;BME280;59889;50.700;5.440;2023-03-04T01:22:13;101020.72;;;19.75;31.94
72024;BME280;59889;50.700;5.440;2023-03-04T01:24:38;101018.84;;;19.49;32.00
72024;BME280;59889;50.700;5.440;2023-03-04T01:27:03;101019.11;;;19.49;31.99
72024;BME280;59889;50.700;5.440;2023-03-04T01:29:28;101017.41;;;19.77;31.92
72024;BME280;59889;50.700;5.440;2023-03-04T01:31:53;101017.08;;;19.81;31.88
72024;BME280;59889;50.700;5.440;2023-03-04T01:34:18;101014.27;;;19.48;31.97
72024;BME280;59889;50.700;5.440;2023-03-04T01:36:43;101012.99;;;19.70;32.01
72024;BME280;59889;50.700;5.440;2023-03-04T01:39:09;101007.72;;;19.49;31.97
72024;BME280;59889;50.700;5.440;2023-03-04T01:41:34;101007.29;;;19.44;32.04
72024;BME280;59889;50.700;5.440;2023-03-04T01:43:59;101001.90;;;19.65;32.06
72024;BME280;59889;50.700;5.440;2023-03-04T01:46:24;101002.87;;;19.52;31.96
72024;BME280;59889;50.700;5.440;2023-03-04T01:48:49;100998.60;;;19.80;31.90
72024;BME280;59889;50.700;5.440;2023-03-04T01:51:16;100994.85;;;19.79;31.94
72024;BME280;59889;50.700;5.440;2023-03-04T01:53:40;100991.69;;;19.51;31.97
72024;BME280;59889;50.700;5.440;2023-03-04T01:56:11;100986.06;;;19.60;31.86
72024;BME280;59889;50.700;5.440;2023-03-04T01:58:31;100986.59;;;19.61;31.87
72024;BME280;59889;50.700;5.440;2023-03-04T02:00:55;100985.93;;;19.54;31.94
72024;BME280;59889;50.700;5.440;2023-03-04T02:03:20;100980.12;;;19.49;32.00
72024;BME280;59889;50.700;5.440;2023-03-04T02:05:48;100980.87;;;19.53;31.94
72024;BME280;59889;50.700;5.440;2023-03-04T02:08:11;100977.93;;;19.73;31.97
72024;BME280;59889;50.700;5.440;2023-03-04T02:10:36;100972.97;;;19.69;32.05
72024;BME280;59889;50.700;5.440;2023-03-04T02:13:01;100970.69;;;19.79;31.94
72024;BME280;59889;50.700;5.440;2023-03-04T02:15:26;100971.27;;;19.78;31.94
72024;BME280;59889;50.700;5.440;2023-03-04T02:17:51;100965.84;;;19.51;31.94
72024;BME280;59889;50.700;5.440;2023-03-04T02:20:24;100963.37;;;19.45;32.07
72024;BME280;59889;50.700;5.440;2023-03-04T02:22:48;100961.20;;;19.28;31.97
72024;BME280;59889;50.700;5.440;2023-03-04T02:25:10;100960.60;;;19.72;32.01
72024;BME280;59889;50.700;5.440;2023-03-04T02:27:31;100957.77;;;19.44;32.01
72024;BME280;59889;50.700;5.440;2023-03-04T02:29:56;100955.62;;;19.73;32.01
72024;BME280;59889;50.700;5.440;2023-03-04T02:32:21;100952.85;;;19.53;31.95
72024;BME280;59889;50.700;5.440;2023-03-04T02:34:48;100948.60;;;19.50;32.00
72024;BME280;59889;50.700;5.440;2023-03-04T02:37:13;100953.75;;;19.75;31.98
72024;BME280;59889;50.700;5.440;2023-03-04T02:39:40;100953.55;;;19.73;32.01
72024;BME280;59889;50.700;5.440;2023-03-04T02:42:03;100952.89;;;19.77;31.96
72024;BME280;59889;50.700;5.440;2023-03-04T02:44:30;100947.32;;;19.78;31.94
72024;BME280;59889;50.700;5.440;2023-03-04T02:46:54;100947.09;;;19.55;31.94
72024;BME280;59889;50.700;5.440;2023-03-04T02:49:19;100943.98;;;19.53;31.96
72024;BME280;59889;50.700;5.440;2023-03-04T02:51:43;100943.59;;;19.55;31.91
72024;BME280;59889;50.700;5.440;2023-03-04T02:54:14;100938.87;;;19.71;31.99
72024;BME280;59889;50.700;5.440;2023-03-04T02:56:33;100938.85;;;19.76;31.97
72024;BME280;59889;50.700;5.440;2023-03-04T02:58:58;100938.17;;;19.76;31.96
72024;BME280;59889;50.700;5.440;2023-03-04T03:01:27;100934.99;;;19.48;32.00
72024;BME280;59889;50.700;5.440;2023-03-04T03:03:49;100933.86;;;19.58;31.90
72024;BME280;59889;50.700;5.440;2023-03-04T03:06:14;100931.72;;;19.59;31.88
72024;BME280;59889;50.700;5.440;2023-03-04T03:08:39;100931.02;;;19.47;31.99
72024;BME280;59889;50.700;5.440;2023-03-04T03:11:04;100929.89;;;19.77;31.93
72024;BME280;59889;50.700;5.440;2023-03-04T03:13:30;100926.69;;;19.72;32.02
72024;BME280;59889;50.700;5.440;2023-03-04T03:15:54;100921.58;;;19.75;31.97
72024;BME280;59889;50.700;5.440;2023-03-04T03:18:19;100922.60;;;19.74;31.95
72024;BME280;59889;50.700;5.440;2023-03-04T03:20:45;100921.78;;;19.71;32.00
72024;BME280;59889;50.700;5.440;2023-03-04T03:23:10;100921.76;;;19.50;31.98
72024;BME280;59889;50.700;5.440;2023-03-04T03:25:35;100920.62;;;19.51;31.97
72024;BME280;59889;50.700;5.440;2023-03-04T03:28:00;100920.31;;;19.67;32.06
72024;BME280;59889;50.700;5.440;2023-03-04T03:30:25;100918.34;;;19.76;31.96
72024;BME280;59889;50.700;5.440;2023-03-04T03:32:50;100916.46;;;19.72;31.99
72024;BME280;59889;50.700;5.440;2023-03-04T03:35:16;100915.49;;;19.71;32.00
72024;BME280;59889;50.700;5.440;2023-03-04T03:37:40;100913.86;;;19.70;32.03
72024;BME280;59889;50.700;5.440;2023-03-04T03:40:07;100914.37;;;19.49;31.96
72024;BME280;59889;50.700;5.440;2023-03-04T03:42:31;100916.38;;;19.63;31.84
72024;BME280;59889;50.700;5.440;2023-03-04T03:44:56;100915.07;;;19.80;31.90
72024;BME280;59889;50.700;5.440;2023-03-04T03:47:22;100917.20;;;19.80;31.89
72024;BME280;59889;50.700;5.440;2023-03-04T03:49:46;100916.19;;;19.75;31.94
72024;BME280;59889;50.700;5.440;2023-03-04T03:52:11;100915.22;;;19.72;31.96
72024;BME280;59889;50.700;5.440;2023-03-04T03:54:37;100916.06;;;19.67;32.06
72024;BME280;59889;50.700;5.440;2023-03-04T03:57:02;100918.02;;;19.45;32.00
72024;BME280;59889;50.700;5.440;2023-03-04T03:59:27;100917.03;;;19.69;32.01
72024;BME280;59889;50.700;5.440;2023-03-04T04:01:52;100917.81;;;19.72;32.00
72024;BME280;59889;50.700;5.440;2023-03-04T04:04:17;100918.81;;;19.73;31.95
72024;BME280;59889;50.700;5.440;2023-03-04T04:06:42;100916.83;;;19.64;32.08
72024;BME280;59889;50.700;5.440;2023-03-04T04:09:08;100920.54;;;19.68;32.04
72024;BME280;59889;50.700;5.440;2023-03-04T04:11:32;100920.62;;;19.70;32.02
72024;BME280;59889;50.700;5.440;2023-03-04T04:13:57;100920.13;;;19.51;31.96
72024;BME280;59889;50.700;5.440;2023-03-04T04:16:23;100918.19;;;19.27;31.94
72024;BME280;59889;50.700;5.440;2023-03-04T04:18:48;100919.00;;;19.65;32.05
72024;BME280;59889;50.700;5.440;2023-03-04T04:21:13;100915.87;;;19.47;32.00
72024;BME280;59889;50.700;5.440;2023-03-04T04:23:38;100912.47;;;19.65;32.07
72024;BME280;59889;50.700;5.440;2023-03-04T04:26:03;100911.17;;;19.71;31.97
72024;BME280;59889;50.700;5.440;2023-03-04T04:28:28;100910.00;;;19.47;31.97
72024;BME280;59889;50.700;5.440;2023-03-04T04:30:53;100906.97;;;19.72;31.97
72024;BME280;59889;50.700;5.440;2023-03-04T04:33:19;100908.15;;;19.70;31.99
72024;BME280;59889;50.700;5.440;2023-03-04T04:35:44;100906.30;;;19.48;31.98
72024;BME280;59889;50.700;5.440;2023-03-04T04:38:09;100906.40;;;19.46;31.99
72024;BME280;59889;50.700;5.440;2023-03-04T04:40:34;100906.34;;;19.49;31.96
72024;BME280;59889;50.700;5.440;2023-03-04T04:42:59;100908.82;;;19.71;31.97
72024;BME280;59889;50.700;5.440;2023-03-04T04:45:25;100910.98;;;19.70;31.99
72024;BME280;59889;50.700;5.440;2023-03-04T04:47:49;100917.80;;;19.70;32.00
72024;BME280;59889;50.700;5.440;2023-03-04T04:50:15;100916.65;;;19.26;31.96
72024;BME280;59889;50.700;5.440;2023-03-04T04:52:40;100921.86;;;19.74;31.96
72024;BME280;59889;50.700;5.440;2023-03-04T04:55:05;100920.43;;;19.70;32.03
72024;BME280;59889;50.700;5.440;2023-03-04T04:57:30;100921.05;;;19.21;32.04
72024;BME280;59889;50.700;5.440;2023-03-04T04:59:55;100920.62;;;19.66;32.03
72024;BME280;59889;50.700;5.440;2023-03-04T05:02:20;100924.35;;;19.47;32.01
72024;BME280;59889;50.700;5.440;2023-03-04T05:04:45;100924.92;;;19.73;31.97
72024;BME280;59889;50.700;5.440;2023-03-04T05:07:10;100927.01;;;19.16;32.09
72024;BME280;59889;50.700;5.440;2023-03-04T05:09:36;100929.52;;;19.48;32.01
72024;BME280;59889;50.700;5.440;2023-03-04T05:12:01;100931.77;;;19.45;32.01
72024;BME280;59889;50.700;5.440;2023-03-04T05:14:26;100927.98;;;19.68;32.04
72024;BME280;59889;50.700;5.440;2023-03-04T05:16:51;100929.95;;;19.66;32.08
72024;BME280;59889;50.700;5.440;2023-03-04T05:19:16;100931.86;;;19.71;32.00
72024;BME280;59889;50.700;5.440;2023-03-04T05:21:41;100933.17;;;19.51;31.93
72024;BME280;59889;50.700;5.440;2023-03-04T05:24:06;100932.89;;;19.45;32.01
72024;BME280;59889;50.700;5.440;2023-03-04T05:26:32;100931.30;;;19.74;31.96
72024;BME280;59889;50.700;5.440;2023-03-04T05:28:57;100930.82;;;19.45;32.01
72024;BME280;59889;50.700;5.440;2023-03-04T05:31:22;100930.26;;;19.64;32.05
72024;BME280;59889;50.700;5.440;2023-03-04T05:33:47;100931.93;;;19.59;32.05
72024;BME280;59889;50.700;5.440;2023-03-04T05:36:12;100928.60;;;19.41;32.03
72024;BME280;59889;50.700;5.440;2023-03-04T05:38:37;100926.96;;;19.69;31.96
72024;BME280;59889;50.700;5.440;2023-03-04T05:41:04;100926.68;;;19.64;32.00
72024;BME280;59889;50.700;5.440;2023-03-04T05:43:28;100921.79;;;19.62;32.03
72024;BME280;59889;50.700;5.440;2023-03-04T05:45:53;100924.29;;;19.64;31.99
72024;BME280;59889;50.700;5.440;2023-03-04T05:48:18;100925.88;;;19.67;31.94
72024;BME280;59889;50.700;5.440;2023-03-04T05:50:43;100928.20;;;19.34;32.06
72024;BME280;59889;50.700;5.440;2023-03-04T05:53:08;100929.45;;;19.59;32.00
72024;BME280;59889;50.700;5.440;2023-03-04T05:55:33;100930.65;;;19.65;31.93
72024;BME280;59889;50.700;5.440;2023-03-04T05:57:58;100932.46;;;19.68;31.92
72024;BME280;59889;50.700;5.440;2023-03-04T06:00:24;100934.41;;;19.42;31.93
72024;BME280;59889;50.700;5.440;2023-03-04T06:02:48;100934.96;;;19.39;31.93
72024;BME280;59889;50.700;5.440;2023-03-04T06:05:15;100938.63;;;19.44;31.88
72024;BME280;59889;50.700;5.440;2023-03-04T06:07:39;100936.25;;;19.62;31.94
72024;BME280;59889;50.700;5.440;2023-03-04T06:10:05;100936.57;;;19.38;31.93
72024;BME280;59889;50.700;5.440;2023-03-04T06:12:29;100939.57;;;19.62;31.92
72024;BME280;59889;50.700;5.440;2023-03-04T06:14:54;100941.62;;;19.62;31.92
72024;BME280;59889;50.700;5.440;2023-03-04T06:17:20;100947.39;;;19.58;31.99
72024;BME280;59889;50.700;5.440;2023-03-04T06:19:44;100949.62;;;19.20;32.16
72024;BME280;59889;50.700;5.440;2023-03-04T06:22:10;100949.57;;;19.22;32.11
72024;BME280;59889;50.700;5.440;2023-03-04T06:24:35;100955.54;;;19.23;31.73
72024;BME280;59889;50.700;5.440;2023-03-04T06:27:00;100952.67;;;19.13;31.62
72024;BME280;59889;50.700;5.440;2023-03-04T06:29:25;100953.15;;;19.02;31.50
72024;BME280;59889;50.700;5.440;2023-03-04T06:31:50;100954.33;;;19.04;31.25
72024;BME280;59889;50.700;5.440;2023-03-04T06:34:15;100956.85;;;18.99;31.15
72024;BME280;59889;50.700;5.440;2023-03-04T06:36:40;100957.02;;;18.89;31.09
72024;BME280;59889;50.700;5.440;2023-03-04T06:39:06;100957.17;;;18.88;30.97
72024;BME280;59889;50.700;5.440;2023-03-04T06:41:31;100958.91;;;18.82;30.90
72024;BME280;59889;50.700;5.440;2023-03-04T06:43:56;100963.58;;;18.85;30.75
72024;BME280;59889;50.700;5.440;2023-03-04T06:46:22;100963.37;;;18.89;30.62
72024;BME280;59889;50.700;5.440;2023-03-04T06:48:47;100965.39;;;18.76;30.62
72024;BME280;59889;50.700;5.440;2023-03-04T06:51:12;100963.49;;;18.76;30.51
72024;BME280;59889;50.700;5.440;2023-03-04T06:53:38;100968.54;;;18.88;30.32
72024;BME280;59889;50.700;5.440;2023-03-04T06:56:03;100971.88;;;18.81;30.33
72024;BME280;59889;50.700;5.440;2023-03-04T06:58:27;100974.29;;;18.87;30.17
72024;BME280;59889;50.700;5.440;2023-03-04T07:00:52;100973.45;;;18.83;30.13
72024;BME280;59889;50.700;5.440;2023-03-04T07:03:18;100971.89;;;19.02;30.09
72024;BME280;59889;50.700;5.440;2023-03-04T07:05:43;100976.39;;;18.76;30.06
72024;BME280;59889;50.700;5.440;2023-03-04T07:08:08;100978.65;;;18.79;29.96
72024;BME280;59889;50.700;5.440;2023-03-04T07:10:33;100979.79;;;18.95;29.96
72024;BME280;59889;50.700;5.440;2023-03-04T07:12:58;100982.62;;;18.72;29.94
72024;BME280;59889;50.700;5.440;2023-03-04T07:15:23;100982.81;;;18.71;29.88
72024;BME280;59889;50.700;5.440;2023-03-04T07:17:48;100981.47;;;18.75;29.84
72024;BME280;59889;50.700;5.440;2023-03-04T07:20:14;100983.87;;;18.74;29.87
72024;BME280;59889;50.700;5.440;2023-03-04T07:22:39;100985.92;;;18.73;30.33
72024;BME280;59889;50.700;5.440;2023-03-04T07:25:05;100989.12;;;18.76;30.60
72024;BME280;59889;50.700;5.440;2023-03-04T07:27:29;100991.61;;;18.87;30.61
72024;BME280;59889;50.700;5.440;2023-03-04T07:29:54;100994.70;;;18.76;30.80
72024;BME280;59889;50.700;5.440;2023-03-04T07:32:19;100991.25;;;18.75;30.94
72024;BME280;59889;50.700;5.440;2023-03-04T07:34:44;100994.12;;;18.70;31.04
72024;BME280;59889;50.700;5.440;2023-03-04T07:37:10;100995.23;;;18.85;30.95
72024;BME280;59889;50.700;5.440;2023-03-04T07:39:35;100993.80;;;18.96;31.03
72024;BME280;59889;50.700;5.440;2023-03-04T07:42:00;100997.27;;;18.84;31.21
72024;BME280;59889;50.700;5.440;2023-03-04T07:44:26;100998.71;;;18.88;31.29
72024;BME280;59889;50.700;5.440;2023-03-04T07:46:51;101001.50;;;18.98;31.24
72024;BME280;59889;50.700;5.440;2023-03-04T07:49:16;101003.96;;;18.90;31.46
72024;BME280;59889;50.700;5.440;2023-03-04T07:51:41;101004.90;;;19.03;31.41
72024;BME280;59889;50.700;5.440;2023-03-04T07:54:07;101006.30;;;19.04;31.77
72024;BME280;59889;50.700;5.440;2023-03-04T07:56:33;101010.21;;;18.99;32.03
72024;BME280;59889;50.700;5.440;2023-03-04T07:58:57;101010.68;;;18.99;32.24
72024;BME280;59889;50.700;5.440;2023-03-04T08:01:24;101012.05;;;19.05;32.42
72024;BME280;59889;50.700;5.440;2023-03-04T08:03:48;101014.17;;;19.11;32.64
72024;BME280;59889;50.700;5.440;2023-03-04T08:06:15;101015.86;;;19.04;33.10
72024;BME280;59889;50.700;5.440;2023-03-04T08:08:38;101014.91;;;19.03;33.31
72024;BME280;59889;50.700;5.440;2023-03-04T08:11:05;101014.41;;;19.05;33.41
72024;BME280;59889;50.700;5.440;2023-03-04T08:13:29;101015.99;;;19.00;33.53
72024;BME280;59889;50.700;5.440;2023-03-04T08:15:55;101019.24;;;19.07;33.35
72024;BME280;59889;50.700;5.440;2023-03-04T08:18:20;101020.86;;;18.96;33.53
72024;BME280;59889;50.700;5.440;2023-03-04T08:20:45;101019.53;;;18.81;33.80
72024;BME280;59889;50.700;5.440;2023-03-04T08:23:11;101022.18;;;18.57;34.23
72024;BME280;59889;50.700;5.440;2023-03-04T08:25:38;101025.32;;;18.79;33.99
72024;BME280;59889;50.700;5.440;2023-03-04T08:28:01;101030.18;;;18.38;35.13
72024;BME280;59889;50.700;5.440;2023-03-04T08:30:26;101030.24;;;18.59;34.35
72024;BME280;59889;50.700;5.440;2023-03-04T08:32:52;101032.91;;;18.34;34.66
72024;BME280;59889;50.700;5.440;2023-03-04T08:35:17;101033.04;;;18.72;34.05
72024;BME280;59889;50.700;5.440;2023-03-04T08:37:42;101034.41;;;18.81;34.11
72024;BME280;59889;50.700;5.440;2023-03-04T08:40:09;101036.90;;;18.97;33.91
72024;BME280;59889;50.700;5.440;2023-03-04T08:42:33;101038.05;;;18.95;34.17
72024;BME280;59889;50.700;5.440;2023-03-04T08:44:58;101038.75;;;19.01;34.24
72024;BME280;59889;50.700;5.440;2023-03-04T08:47:23;101039.28;;;19.09;34.24
72024;BME280;59889;50.700;5.440;2023-03-04T08:49:48;101037.61;;;19.03;34.34
72024;BME280;59889;50.700;5.440;2023-03-04T08:52:13;101039.31;;;19.17;34.42
72024;BME280;59889;50.700;5.440;2023-03-04T08:54:38;101040.93;;;19.24;34.55
72024;BME280;59889;50.700;5.440;2023-03-04T08:57:03;101041.25;;;19.36;34.38
72024;BME280;59889;50.700;5.440;2023-03-04T08:59:29;101039.28;;;19.24;34.67
72024;BME280;59889;50.700;5.440;2023-03-04T09:01:54;101036.68;;;19.01;34.74
72024;BME280;59889;50.700;5.440;2023-03-04T09:04:19;101034.20;;;19.15;35.01
72024;BME280;59889;50.700;5.440;2023-03-04T09:06:45;101033.41;;;19.12;35.27
72024;BME280;59889;50.700;5.440;2023-03-04T09:09:10;101033.27;;;19.25;34.94
72024;BME280;59889;50.700;5.440;2023-03-04T09:11:35;101034.99;;;19.33;34.89
72024;BME280;59889;50.700;5.440;2023-03-04T09:14:01;101033.07;;;19.20;34.83
72024;BME280;59889;50.700;5.440;2023-03-04T09:16:26;101032.44;;;19.01;35.75
72024;BME280;59889;50.700;5.440;2023-03-04T09:18:51;101028.77;;;19.18;35.36
72024;BME280;59889;50.700;5.440;2023-03-04T09:21:16;101027.49;;;19.27;35.24
72024;BME280;59889;50.700;5.440;2023-03-04T09:23:42;101028.41;;;18.99;35.17
72024;BME280;59889;50.700;5.440;2023-03-04T09:26:15;101026.48;;;18.97;35.22
72024;BME280;59889;50.700;5.440;2023-03-04T09:28:33;101029.40;;;19.23;35.20
72024;BME280;59889;50.700;5.440;2023-03-04T09:30:59;101028.82;;;19.17;35.25
72024;BME280;59889;50.700;5.440;2023-03-04T09:33:24;101027.86;;;19.20;35.18
72024;BME280;59889;50.700;5.440;2023-03-04T09:35:49;101026.64;;;19.01;35.32
72024;BME280;59889;50.700;5.440;2023-03-04T09:38:14;101023.36;;;19.22;35.13
72024;BME280;59889;50.700;5.440;2023-03-04T09:40:41;101022.53;;;19.18;35.22
72024;BME280;59889;50.700;5.440;2023-03-04T09:43:09;101020.52;;;19.17;35.13
72024;BME280;59889;50.700;5.440;2023-03-04T09:45:35;101020.82;;;19.18;34.98
72024;BME280;59889;50.700;5.440;2023-03-04T09:47:56;101019.44;;;19.22;34.90
72024;BME280;59889;50.700;5.440;2023-03-04T09:50:22;101017.42;;;19.19;34.94
72024;BME280;59889;50.700;5.440;2023-03-04T09:53:00;101021.32;;;18.99;34.91
72024;BME280;59889;50.700;5.440;2023-03-04T09:55:20;101022.82;;;19.23;35.05
72024;BME280;59889;50.700;5.440;2023-03-04T09:57:46;101021.50;;;19.23;35.19
72024;BME280;59889;50.700;5.440;2023-03-04T10:00:11;101020.53;;;19.22;35.49
72024;BME280;59889;50.700;5.440;2023-03-04T10:02:38;101018.95;;;19.21;35.23
72024;BME280;59889;50.700;5.440;2023-03-04T10:04:58;101018.26;;;19.23;35.52
72024;BME280;59889;50.700;5.440;2023-03-04T10:07:24;101017.10;;;19.20;35.48
72024;BME280;59889;50.700;5.440;2023-03-04T10:09:50;101017.29;;;19.43;35.54
72024;BME280;59889;50.700;5.440;2023-03-04T10:12:14;101016.14;;;19.19;35.61
72024;BME280;59889;50.700;5.440;2023-03-04T10:14:41;101013.56;;;19.25;35.51
72024;BME280;59889;50.700;5.440;2023-03-04T10:17:10;101013.99;;;19.19;35.48
72024;BME280;59889;50.700;5.440;2023-03-04T10:19:35;101015.93;;;19.19;35.50
72024;BME280;59889;50.700;5.440;2023-03-04T10:21:53;101012.31;;;19.22;35.49
72024;BME280;59889;50.700;5.440;2023-03-04T10:24:21;101010.26;;;19.20;35.58
72024;BME280;59889;50.700;5.440;2023-03-04T10:26:47;101011.93;;;19.17;35.57
72024;BME280;59889;50.700;5.440;2023-03-04T10:29:13;101012.45;;;19.18;35.58
72024;BME280;59889;50.700;5.440;2023-03-04T10:31:37;101013.72;;;19.14;35.55
72024;BME280;59889;50.700;5.440;2023-03-04T10:34:01;101010.78;;;19.14;35.62
72024;BME280;59889;50.700;5.440;2023-03-04T10:36:35;101014.09;;;19.12;35.60
72024;BME280;59889;50.700;5.440;2023-03-04T10:38:53;101012.32;;;19.11;35.60
72024;BME280;59889;50.700;5.440;2023-03-04T10:41:20;101010.96;;;19.17;35.56
72024;BME280;59889;50.700;5.440;2023-03-04T10:43:42;101010.08;;;19.16;35.56
72024;BME280;59889;50.700;5.440;2023-03-04T10:46:10;101007.64;;;19.13;35.55
72024;BME280;59889;50.700;5.440;2023-03-04T10:48:32;101004.83;;;19.13;35.64
72024;BME280;59889;50.700;5.440;2023-03-04T10:51:10;101005.63;;;19.17;35.54
72024;BME280;59889;50.700;5.440;2023-03-04T10:53:29;101005.10;;;19.36;35.67
72024;BME280;59889;50.700;5.440;2023-03-04T10:55:49;101004.71;;;19.16;35.83
72024;BME280;59889;50.700;5.440;2023-03-04T10:58:15;101001.32;;;19.19;35.65
72024;BME280;59889;50.700;5.440;2023-03-04T11:00:40;100999.65;;;19.21;35.55
72024;BME280;59889;50.700;5.440;2023-03-04T11:03:21;101004.94;;;19.19;35.63
72024;BME280;59889;50.700;5.440;2023-03-04T11:05:31;101006.93;;;19.42;35.71
72024;BME280;59889;50.700;5.440;2023-03-04T11:07:58;101006.29;;;19.19;35.70
72024;BME280;59889;50.700;5.440;2023-03-04T11:10:23;101007.98;;;19.13;35.81
72024;BME280;59889;50.700;5.440;2023-03-04T11:12:49;101006.86;;;19.16;35.69
72024;BME280;59889;50.700;5.440;2023-03-04T11:15:18;101006.44;;;19.17;35.67
72024;BME280;59889;50.700;5.440;2023-03-04T11:17:42;101002.99;;;19.21;35.52
72024;BME280;59889;50.700;5.440;2023-03-04T11:20:10;100995.76;;;19.23;35.47
72024;BME280;59889;50.700;5.440;2023-03-04T11:22:28;100991.26;;;19.19;35.60
72024;BME280;59889;50.700;5.440;2023-03-04T11:24:58;100988.34;;;19.21;35.59
72024;BME280;59889;50.700;5.440;2023-03-04T11:27:21;100987.75;;;19.32;35.57
72024;BME280;59889;50.700;5.440;2023-03-04T11:29:47;100981.26;;;19.05;35.61
72024;BME280;59889;50.700;5.440;2023-03-04T11:32:11;100977.67;;;19.34;35.68
72024;BME280;59889;50.700;5.440;2023-03-04T11:34:38;100976.90;;;19.37;35.62
72024;BME280;59889;50.700;5.440;2023-03-04T11:37:02;100975.46;;;19.34;35.72
72024;BME280;59889;50.700;5.440;2023-03-04T11:39:31;100974.45;;;19.28;35.79
72024;BME280;59889;50.700;5.440;2023-03-04T11:41:53;100973.48;;;19.39;35.65
72024;BME280;59889;50.700;5.440;2023-03-04T11:44:15;100974.08;;;19.36;35.66
72024;BME280;59889;50.700;5.440;2023-03-04T11:46:52;100970.82;;;19.08;35.71
72024;BME280;59889;50.700;5.440;2023-03-04T11:49:15;100969.85;;;19.32;35.71
72024;BME280;59889;50.700;5.440;2023-03-04T11:51:35;100967.99;;;19.25;35.80
72024;BME280;59889;50.700;5.440;2023-03-04T11:54:04;100964.99;;;19.23;35.90
72024;BME280;59889;50.700;5.440;2023-03-04T11:56:29;100961.67;;;19.22;35.88
72024;BME280;59889;50.700;5.440;2023-03-04T11:58:58;100960.26;;;19.21;35.85
72024;BME280;59889;50.700;5.440;2023-03-04T12:01:14;100956.60;;;19.22;35.78
72024;BME280;59889;50.700;5.440;2023-03-04T12:03:50;100952.98;;;19.24;35.82
72024;BME280;59889;50.700;5.440;2023-03-04T12:06:06;100951.44;;;19.18;35.86
72024;BME280;59889;50.700;5.440;2023-03-04T12:08:38;100948.61;;;19.17;35.84
72024;BME280;59889;50.700;5.440;2023-03-04T12:11:00;100945.25;;;19.16;35.95
72024;BME280;59889;50.700;5.440;2023-03-04T12:15:49;100935.52;;;19.15;35.91
72024;BME280;59889;50.700;5.440;2023-03-04T12:18:19;100936.16;;;19.10;36.08
72024;BME280;59889;50.700;5.440;2023-03-04T12:20:40;100930.82;;;19.15;35.93
72024;BME280;59889;50.700;5.440;2023-03-04T12:23:07;100930.52;;;19.16;35.81
72024;BME280;59889;50.700;5.440;2023-03-04T12:25:34;100929.03;;;19.15;35.75
72024;BME280;59889;50.700;5.440;2023-03-04T12:27:55;100927.15;;;19.12;35.86
72024;BME280;59889;50.700;5.440;2023-03-04T12:30:19;100921.98;;;19.15;35.72
72024;BME280;59889;50.700;5.440;2023-03-04T12:32:45;100919.73;;;19.12;35.70
72024;BME280;59889;50.700;5.440;2023-03-04T12:35:16;100917.40;;;19.17;35.63
72024;BME280;59889;50.700;5.440;2023-03-04T12:37:39;100912.23;;;19.15;35.62
72024;BME280;59889;50.700;5.440;2023-03-04T12:40:14;100910.75;;;19.16;35.60
72024;BME280;59889;50.700;5.440;2023-03-04T12:42:26;100912.92;;;19.19;35.60